sensor_id;sensor_type;location;lat;lon;timestamp;temperature;humidity
24682;DHT22;12802;53.390;-2.328;2022-12-29T00:02:04;9.50;99.90
24682;DHT22;12802;53.390;-2.328;2022-12-29T00:04:29;9.50;99.90
24682;DHT22;12802;53.390;-2.328;2022-12-29T00:06:55;9.50;99.90
24682;DHT22;12802;53.390;-2.328;2022-12-29T00:09:21;9.50;99.90
24682;DHT22;12802;53.390;-2.328;2022-12-29T00:11:47;9.50;99.90
24682;DHT22;12802;53.390;-2.328;2022-12-29T00:14:13;9.40;99.90
24682;DHT22;12802;53.390;-2.328;2022-12-29T00:16:58;9.40;99.90
24682;DHT22;12802;53.390;-2.328;2022-12-29T00:19:23;9.30;99.90
24682;DHT22;12802;53.390;-2.328;2022-12-29T00:22:10;9.20;99.90
24682;DHT22;12802;53.390;-2.328;2022-12-29T00:24:55;9.10;99.90
24682;DHT22;12802;53.390;-2.328;2022-12-29T00:27:30;9.00;99.90
24682;DHT22;12802;53.390;-2.328;2022-12-29T00:30:20;8.90;99.90
24682;DHT22;12802;53.390;-2.328;2022-12-29T00:33:16;8.90;99.90
24682;DHT22;12802;53.390;-2.328;2022-12-29T00:36:04;8.80;99.90
24682;DHT22;12802;53.390;-2.328;2022-12-29T00:38:32;8.70;99.90
24682;DHT22;12802;53.390;-2.328;2022-12-29T00:41:18;8.70;99.90
24682;DHT22;12802;53.390;-2.328;2022-12-29T00:44:02;8.70;99.90
24682;DHT22;12802;53.390;-2.328;2022-12-29T00:46:35;8.70;99.90
24682;DHT22;12802;53.390;-2.328;2022-12-29T00:49:01;8.60;99.90
24682;DHT22;12802;53.390;-2.328;2022-12-29T00:51:46;8.60;99.90
24682;DHT22;12802;53.390;-2.328;2022-12-29T00:54:12;8.60;99.90
24682;DHT22;12802;53.390;-2.328;2022-12-29T00:56:38;8.60;99.90
24682;DHT22;12802;53.390;-2.328;2022-12-29T00:59:06;8.50;99.90
24682;DHT22;12802;53.390;-2.328;2022-12-29T01:01:32;8.50;99.90
24682;DHT22;12802;53.390;-2.328;2022-12-29T01:03:58;8.50;99.90
24682;DHT22;12802;53.390;-2.328;2022-12-29T01:06:23;8.50;99.90
24682;DHT22;12802;53.390;-2.328;2022-12-29T01:08:50;8.50;99.90
24682;DHT22;12802;53.390;-2.328;2022-12-29T01:11:36;8.50;99.90
24682;DHT22;12802;53.390;-2.328;2022-12-29T01:14:01;8.40;99.90
24682;DHT22;12802;53.390;-2.328;2022-12-29T01:16:27;8.30;99.90
24682;DHT22;12802;53.390;-2.328;2022-12-29T01:18:54;8.20;99.90
24682;DHT22;12802;53.390;-2.328;2022-12-29T01:21:20;8.10;99.90
24682;DHT22;12802;53.390;-2.328;2022-12-29T01:23:46;8.00;99.90
24682;DHT22;12802;53.390;-2.328;2022-12-29T01:26:13;7.90;99.90
24682;DHT22;12802;53.390;-2.328;2022-12-29T01:28:40;7.80;99.90
24682;DHT22;12802;53.390;-2.328;2022-12-29T01:31:08;7.70;99.90
24682;DHT22;12802;53.390;-2.328;2022-12-29T01:33:34;7.60;99.90
24682;DHT22;12802;53.390;-2.328;2022-12-29T01:36:04;7.50;99.90
24682;DHT22;12802;53.390;-2.328;2022-12-29T01:38:31;7.30;99.90
24682;DHT22;12802;53.390;-2.328;2022-12-29T01:40:57;7.30;99.90
24682;DHT22;12802;53.390;-2.328;2022-12-29T01:43:54;7.30;99.90
24682;DHT22;12802;53.390;-2.328;2022-12-29T01:48:53;7.10;99.90
24682;DHT22;12802;53.390;-2.328;2022-12-29T01:51:23;7.10;99.90
24682;DHT22;12802;53.390;-2.328;2022-12-29T01:53:49;7.10;99.90
24682;DHT22;12802;53.390;-2.328;2022-12-29T01:56:17;7.10;99.90
24682;DHT22;12802;53.390;-2.328;2022-12-29T01:58:48;7.10;99.90
24682;DHT22;12802;53.390;-2.328;2022-12-29T02:01:18;7.10;99.90
24682;DHT22;12802;53.390;-2.328;2022-12-29T02:03:44;7.10;99.90
24682;DHT22;12802;53.390;-2.328;2022-12-29T02:06:30;7.10;99.90
24682;DHT22;12802;53.390;-2.328;2022-12-29T02:08:58;7.10;99.90
24682;DHT22;12802;53.390;-2.328;2022-12-29T02:11:25;7.10;99.90
24682;DHT22;12802;53.390;-2.328;2022-12-29T02:13:52;7.10;99.90
24682;DHT22;12802;53.390;-2.328;2022-12-29T02:30:06;7.10;99.90
24682;DHT22;12802;53.390;-2.328;2022-12-29T02:32:48;7.10;99.90
24682;DHT22;12802;53.390;-2.328;2022-12-29T02:35:28;7.10;99.90
24682;DHT22;12802;53.390;-2.328;2022-12-29T02:54:01;7.20;99.90
24682;DHT22;12802;53.390;-2.328;2022-12-29T02:56:47;7.20;99.90
24682;DHT22;12802;53.390;-2.328;2022-12-29T02:59:12;7.20;99.90
24682;DHT22;12802;53.390;-2.328;2022-12-29T03:04:58;7.30;99.90
24682;DHT22;12802;53.390;-2.328;2022-12-29T03:10:41;7.30;99.90
24682;DHT22;12802;53.390;-2.328;2022-12-29T03:18:46;7.30;99.90
24682;DHT22;12802;53.390;-2.328;2022-12-29T03:21:39;7.30;99.90
24682;DHT22;12802;53.390;-2.328;2022-12-29T03:24:32;7.30;99.90
24682;DHT22;12802;53.390;-2.328;2022-12-29T03:27:03;7.30;99.90
24682;DHT22;12802;53.390;-2.328;2022-12-29T03:29:39;7.30;99.90
24682;DHT22;12802;53.390;-2.328;2022-12-29T03:32:08;7.30;99.90
24682;DHT22;12802;53.390;-2.328;2022-12-29T03:34:36;7.30;99.90
24682;DHT22;12802;53.390;-2.328;2022-12-29T03:37:11;7.30;99.90
24682;DHT22;12802;53.390;-2.328;2022-12-29T03:39:38;7.30;99.90
24682;DHT22;12802;53.390;-2.328;2022-12-29T03:42:12;7.30;99.90
24682;DHT22;12802;53.390;-2.328;2022-12-29T03:44:41;7.30;99.90
24682;DHT22;12802;53.390;-2.328;2022-12-29T03:47:10;7.30;99.90
24682;DHT22;12802;53.390;-2.328;2022-12-29T03:49:36;7.30;99.90
24682;DHT22;12802;53.390;-2.328;2022-12-29T03:52:03;7.30;99.90
24682;DHT22;12802;53.390;-2.328;2022-12-29T03:54:30;7.30;99.90
24682;DHT22;12802;53.390;-2.328;2022-12-29T03:56:57;7.30;99.90
24682;DHT22;12802;53.390;-2.328;2022-12-29T03:59:36;7.30;99.90
24682;DHT22;12802;53.390;-2.328;2022-12-29T04:02:01;7.30;99.90
24682;DHT22;12802;53.390;-2.328;2022-12-29T04:04:27;7.40;99.90
24682;DHT22;12802;53.390;-2.328;2022-12-29T04:06:53;7.30;99.90
24682;DHT22;12802;53.390;-2.328;2022-12-29T04:09:19;7.30;99.90
24682;DHT22;12802;53.390;-2.328;2022-12-29T04:11:47;7.30;99.90
24682;DHT22;12802;53.390;-2.328;2022-12-29T04:14:13;7.30;99.90
24682;DHT22;12802;53.390;-2.328;2022-12-29T04:16:39;7.40;99.90
24682;DHT22;12802;53.390;-2.328;2022-12-29T04:19:06;7.30;99.90
24682;DHT22;12802;53.390;-2.328;2022-12-29T04:21:34;7.30;99.90
24682;DHT22;12802;53.390;-2.328;2022-12-29T04:24:00;7.30;99.90
24682;DHT22;12802;53.390;-2.328;2022-12-29T04:26:26;7.30;99.90
24682;DHT22;12802;53.390;-2.328;2022-12-29T04:29:14;7.30;99.90
24682;DHT22;12802;53.390;-2.328;2022-12-29T04:32:02;7.30;99.90
24682;DHT22;12802;53.390;-2.328;2022-12-29T04:34:31;7.30;99.90
24682;DHT22;12802;53.390;-2.328;2022-12-29T04:36:57;7.30;99.90
24682;DHT22;12802;53.390;-2.328;2022-12-29T04:39:23;7.30;99.90
24682;DHT22;12802;53.390;-2.328;2022-12-29T04:41:49;7.30;99.90
24682;DHT22;12802;53.390;-2.328;2022-12-29T04:44:18;7.30;99.90
24682;DHT22;12802;53.390;-2.328;2022-12-29T04:46:53;7.30;99.90
24682;DHT22;12802;53.390;-2.328;2022-12-29T04:49:32;7.30;99.90
24682;DHT22;12802;53.390;-2.328;2022-12-29T04:52:07;7.30;99.90
24682;DHT22;12802;53.390;-2.328;2022-12-29T04:54:34;7.30;99.90
24682;DHT22;12802;53.390;-2.328;2022-12-29T04:57:07;7.30;99.90
24682;DHT22;12802;53.390;-2.328;2022-12-29T04:59:34;7.30;99.90
24682;DHT22;12802;53.390;-2.328;2022-12-29T05:02:00;7.30;99.90
24682;DHT22;12802;53.390;-2.328;2022-12-29T05:04:26;7.30;99.90
24682;DHT22;12802;53.390;-2.328;2022-12-29T05:06:52;7.20;99.90
24682;DHT22;12802;53.390;-2.328;2022-12-29T05:09:18;7.20;99.90
24682;DHT22;12802;53.390;-2.328;2022-12-29T05:11:44;7.20;99.90
24682;DHT22;12802;53.390;-2.328;2022-12-29T05:14:10;7.20;99.90
24682;DHT22;12802;53.390;-2.328;2022-12-29T05:16:36;7.20;99.90
24682;DHT22;12802;53.390;-2.328;2022-12-29T05:19:02;7.20;99.90
24682;DHT22;12802;53.390;-2.328;2022-12-29T05:21:29;7.20;99.90
24682;DHT22;12802;53.390;-2.328;2022-12-29T05:23:55;7.20;99.90
24682;DHT22;12802;53.390;-2.328;2022-12-29T05:26:21;7.20;99.90
24682;DHT22;12802;53.390;-2.328;2022-12-29T05:29:06;7.10;99.90
24682;DHT22;12802;53.390;-2.328;2022-12-29T05:31:32;7.10;99.90
24682;DHT22;12802;53.390;-2.328;2022-12-29T05:33:59;7.10;99.90
24682;DHT22;12802;53.390;-2.328;2022-12-29T05:36:26;7.10;99.90
24682;DHT22;12802;53.390;-2.328;2022-12-29T05:38:56;7.10;99.90
24682;DHT22;12802;53.390;-2.328;2022-12-29T05:41:22;7.10;99.90
24682;DHT22;12802;53.390;-2.328;2022-12-29T05:44:06;7.10;99.90
24682;DHT22;12802;53.390;-2.328;2022-12-29T05:47:09;7.10;99.90
24682;DHT22;12802;53.390;-2.328;2022-12-29T05:50:08;7.00;99.90
24682;DHT22;12802;53.390;-2.328;2022-12-29T05:52:52;7.00;99.90
24682;DHT22;12802;53.390;-2.328;2022-12-29T05:55:18;7.00;99.90
24682;DHT22;12802;53.390;-2.328;2022-12-29T05:57:46;6.90;99.90
24682;DHT22;12802;53.390;-2.328;2022-12-29T06:00:14;7.00;99.90
24682;DHT22;12802;53.390;-2.328;2022-12-29T06:02:40;7.00;99.90
24682;DHT22;12802;53.390;-2.328;2022-12-29T06:05:07;7.00;99.90
24682;DHT22;12802;53.390;-2.328;2022-12-29T06:07:34;6.90;99.90
24682;DHT22;12802;53.390;-2.328;2022-12-29T06:10:00;6.90;99.90
24682;DHT22;12802;53.390;-2.328;2022-12-29T06:12:27;6.90;99.90
24682;DHT22;12802;53.390;-2.328;2022-12-29T06:14:53;6.90;99.90
24682;DHT22;12802;53.390;-2.328;2022-12-29T06:17:20;6.90;99.90
24682;DHT22;12802;53.390;-2.328;2022-12-29T06:19:48;6.90;99.90
24682;DHT22;12802;53.390;-2.328;2022-12-29T06:22:14;7.00;99.90
24682;DHT22;12802;53.390;-2.328;2022-12-29T06:24:41;7.00;99.90
24682;DHT22;12802;53.390;-2.328;2022-12-29T06:27:07;7.00;99.90
24682;DHT22;12802;53.390;-2.328;2022-12-29T06:29:32;7.00;99.90
24682;DHT22;12802;53.390;-2.328;2022-12-29T06:31:58;7.00;99.90
24682;DHT22;12802;53.390;-2.328;2022-12-29T06:34:24;7.00;99.90
24682;DHT22;12802;53.390;-2.328;2022-12-29T06:36:51;7.00;99.90
24682;DHT22;12802;53.390;-2.328;2022-12-29T06:39:17;7.00;99.90
24682;DHT22;12802;53.390;-2.328;2022-12-29T06:41:52;7.00;99.90
24682;DHT22;12802;53.390;-2.328;2022-12-29T06:44:36;7.00;99.90
24682;DHT22;12802;53.390;-2.328;2022-12-29T06:47:05;7.10;99.90
24682;DHT22;12802;53.390;-2.328;2022-12-29T06:49:30;7.10;99.90
24682;DHT22;12802;53.390;-2.328;2022-12-29T06:51:56;7.10;99.90
24682;DHT22;12802;53.390;-2.328;2022-12-29T06:54:23;7.10;99.90
24682;DHT22;12802;53.390;-2.328;2022-12-29T06:56:49;7.10;99.90
24682;DHT22;12802;53.390;-2.328;2022-12-29T06:59:15;7.20;99.90
24682;DHT22;12802;53.390;-2.328;2022-12-29T07:01:41;7.20;99.90
24682;DHT22;12802;53.390;-2.328;2022-12-29T07:04:06;7.20;99.90
24682;DHT22;12802;53.390;-2.328;2022-12-29T07:06:32;7.20;99.90
24682;DHT22;12802;53.390;-2.328;2022-12-29T07:08:58;7.20;99.90
24682;DHT22;12802;53.390;-2.328;2022-12-29T07:11:23;7.30;99.90
24682;DHT22;12802;53.390;-2.328;2022-12-29T07:13:50;7.30;99.90
24682;DHT22;12802;53.390;-2.328;2022-12-29T07:16:15;7.30;99.90
24682;DHT22;12802;53.390;-2.328;2022-12-29T07:18:42;7.30;99.90
24682;DHT22;12802;53.390;-2.328;2022-12-29T07:21:08;7.30;99.90
24682;DHT22;12802;53.390;-2.328;2022-12-29T07:23:33;7.30;99.90
24682;DHT22;12802;53.390;-2.328;2022-12-29T07:26:04;7.30;99.90
24682;DHT22;12802;53.390;-2.328;2022-12-29T07:28:31;7.30;99.90
24682;DHT22;12802;53.390;-2.328;2022-12-29T07:30:58;7.20;99.90
24682;DHT22;12802;53.390;-2.328;2022-12-29T07:33:24;7.30;99.90
24682;DHT22;12802;53.390;-2.328;2022-12-29T07:35:50;7.30;99.90
24682;DHT22;12802;53.390;-2.328;2022-12-29T07:38:16;7.30;99.90
24682;DHT22;12802;53.390;-2.328;2022-12-29T07:40:42;7.30;99.90
24682;DHT22;12802;53.390;-2.328;2022-12-29T07:43:09;7.30;99.90
24682;DHT22;12802;53.390;-2.328;2022-12-29T07:45:41;7.30;99.90
24682;DHT22;12802;53.390;-2.328;2022-12-29T07:48:10;7.40;99.90
24682;DHT22;12802;53.390;-2.328;2022-12-29T07:50:36;7.30;99.90
24682;DHT22;12802;53.390;-2.328;2022-12-29T07:53:02;7.30;99.90
24682;DHT22;12802;53.390;-2.328;2022-12-29T07:55:28;7.30;99.90
24682;DHT22;12802;53.390;-2.328;2022-12-29T07:57:55;7.30;99.90
24682;DHT22;12802;53.390;-2.328;2022-12-29T08:00:22;7.30;99.90
24682;DHT22;12802;53.390;-2.328;2022-12-29T08:02:48;7.30;99.90
24682;DHT22;12802;53.390;-2.328;2022-12-29T08:05:14;7.30;99.90
24682;DHT22;12802;53.390;-2.328;2022-12-29T08:07:43;7.30;99.90
24682;DHT22;12802;53.390;-2.328;2022-12-29T08:10:09;7.30;99.90
24682;DHT22;12802;53.390;-2.328;2022-12-29T08:12:37;7.30;99.90
24682;DHT22;12802;53.390;-2.328;2022-12-29T08:15:03;7.40;99.90
24682;DHT22;12802;53.390;-2.328;2022-12-29T08:17:29;7.30;99.90
24682;DHT22;12802;53.390;-2.328;2022-12-29T08:19:55;7.40;99.90
24682;DHT22;12802;53.390;-2.328;2022-12-29T08:22:21;7.40;99.90
24682;DHT22;12802;53.390;-2.328;2022-12-29T08:24:47;7.30;99.90
24682;DHT22;12802;53.390;-2.328;2022-12-29T08:27:13;7.30;99.90
24682;DHT22;12802;53.390;-2.328;2022-12-29T08:29:39;7.30;99.90
24682;DHT22;12802;53.390;-2.328;2022-12-29T08:32:05;7.30;99.90
24682;DHT22;12802;53.390;-2.328;2022-12-29T08:34:31;7.20;99.90
24682;DHT22;12802;53.390;-2.328;2022-12-29T08:36:57;7.20;99.90
24682;DHT22;12802;53.390;-2.328;2022-12-29T08:39:23;7.10;99.90
24682;DHT22;12802;53.390;-2.328;2022-12-29T08:41:49;7.10;99.90
24682;DHT22;12802;53.390;-2.328;2022-12-29T08:44:15;7.10;99.90
24682;DHT22;12802;53.390;-2.328;2022-12-29T08:46:40;7.00;99.90
24682;DHT22;12802;53.390;-2.328;2022-12-29T08:49:06;6.90;99.90
24682;DHT22;12802;53.390;-2.328;2022-12-29T08:51:32;6.80;99.90
24682;DHT22;12802;53.390;-2.328;2022-12-29T08:53:58;6.80;99.90
24682;DHT22;12802;53.390;-2.328;2022-12-29T08:56:25;6.80;99.90
24682;DHT22;12802;53.390;-2.328;2022-12-29T08:58:54;6.80;99.90
24682;DHT22;12802;53.390;-2.328;2022-12-29T09:01:22;6.80;99.90
24682;DHT22;12802;53.390;-2.328;2022-12-29T09:03:48;6.70;99.90
24682;DHT22;12802;53.390;-2.328;2022-12-29T09:06:16;6.70;99.90
24682;DHT22;12802;53.390;-2.328;2022-12-29T09:08:42;6.80;99.90
24682;DHT22;12802;53.390;-2.328;2022-12-29T09:11:14;6.70;99.90
24682;DHT22;12802;53.390;-2.328;2022-12-29T09:13:41;6.70;99.90
24682;DHT22;12802;53.390;-2.328;2022-12-29T09:16:07;6.70;99.90
24682;DHT22;12802;53.390;-2.328;2022-12-29T09:18:34;6.80;99.90
24682;DHT22;12802;53.390;-2.328;2022-12-29T09:21:03;6.80;99.90
24682;DHT22;12802;53.390;-2.328;2022-12-29T09:23:29;6.80;99.90
24682;DHT22;12802;53.390;-2.328;2022-12-29T09:25:55;6.80;99.90
24682;DHT22;12802;53.390;-2.328;2022-12-29T09:28:21;6.70;99.90
24682;DHT22;12802;53.390;-2.328;2022-12-29T09:30:48;6.60;99.90
24682;DHT22;12802;53.390;-2.328;2022-12-29T09:33:14;6.70;99.90
24682;DHT22;12802;53.390;-2.328;2022-12-29T09:35:44;6.70;99.90
24682;DHT22;12802;53.390;-2.328;2022-12-29T09:38:10;6.70;99.90
24682;DHT22;12802;53.390;-2.328;2022-12-29T09:40:37;6.70;99.90
24682;DHT22;12802;53.390;-2.328;2022-12-29T09:46:06;6.90;99.90
24682;DHT22;12802;53.390;-2.328;2022-12-29T09:48:39;6.90;99.90
24682;DHT22;12802;53.390;-2.328;2022-12-29T09:51:11;7.00;99.90
24682;DHT22;12802;53.390;-2.328;2022-12-29T09:53:42;7.00;99.90
24682;DHT22;12802;53.390;-2.328;2022-12-29T09:56:19;7.00;99.90
24682;DHT22;12802;53.390;-2.328;2022-12-29T09:58:55;7.10;99.90
24682;DHT22;12802;53.390;-2.328;2022-12-29T10:04:09;7.30;99.90
24682;DHT22;12802;53.390;-2.328;2022-12-29T10:07:00;7.30;99.90
24682;DHT22;12802;53.390;-2.328;2022-12-29T10:13:01;7.60;99.90
24682;DHT22;12802;53.390;-2.328;2022-12-29T10:15:40;7.70;99.90
24682;DHT22;12802;53.390;-2.328;2022-12-29T10:23:35;8.00;99.90
24682;DHT22;12802;53.390;-2.328;2022-12-29T10:26:11;8.10;99.90
24682;DHT22;12802;53.390;-2.328;2022-12-29T10:31:36;8.10;99.90
24682;DHT22;12802;53.390;-2.328;2022-12-29T10:34:15;8.00;99.90
24682;DHT22;12802;53.390;-2.328;2022-12-29T10:36:46;7.90;99.90
24682;DHT22;12802;53.390;-2.328;2022-12-29T10:39:23;8.00;99.90
24682;DHT22;12802;53.390;-2.328;2022-12-29T10:45:18;8.20;99.90
24682;DHT22;12802;53.390;-2.328;2022-12-29T10:48:12;8.20;99.90
24682;DHT22;12802;53.390;-2.328;2022-12-29T10:50:44;8.10;99.90
24682;DHT22;12802;53.390;-2.328;2022-12-29T10:53:19;8.10;99.90
24682;DHT22;12802;53.390;-2.328;2022-12-29T10:55:46;8.10;99.90
24682;DHT22;12802;53.390;-2.328;2022-12-29T10:58:13;8.10;99.90
24682;DHT22;12802;53.390;-2.328;2022-12-29T11:00:50;8.20;99.90
24682;DHT22;12802;53.390;-2.328;2022-12-29T11:03:32;8.20;99.90
24682;DHT22;12802;53.390;-2.328;2022-12-29T11:08:45;8.10;99.90
24682;DHT22;12802;53.390;-2.328;2022-12-29T11:11:22;8.10;99.90
24682;DHT22;12802;53.390;-2.328;2022-12-29T11:13:51;8.10;99.90
24682;DHT22;12802;53.390;-2.328;2022-12-29T11:16:28;8.10;99.90
24682;DHT22;12802;53.390;-2.328;2022-12-29T11:18:56;8.30;99.90
24682;DHT22;12802;53.390;-2.328;2022-12-29T11:24:01;8.50;99.90
24682;DHT22;12802;53.390;-2.328;2022-12-29T11:26:28;8.60;99.90
24682;DHT22;12802;53.390;-2.328;2022-12-29T11:31:58;8.70;99.90
24682;DHT22;12802;53.390;-2.328;2022-12-29T11:36:58;8.80;99.90
24682;DHT22;12802;53.390;-2.328;2022-12-29T11:39:26;8.80;99.90
24682;DHT22;12802;53.390;-2.328;2022-12-29T11:41:53;8.80;99.90
24682;DHT22;12802;53.390;-2.328;2022-12-29T11:44:19;8.80;99.90
24682;DHT22;12802;53.390;-2.328;2022-12-29T11:46:48;8.70;99.90
24682;DHT22;12802;53.390;-2.328;2022-12-29T11:49:20;8.60;99.90
24682;DHT22;12802;53.390;-2.328;2022-12-29T11:51:49;8.60;99.90
24682;DHT22;12802;53.390;-2.328;2022-12-29T11:54:30;8.60;99.90
24682;DHT22;12802;53.390;-2.328;2022-12-29T11:56:57;8.60;99.90
24682;DHT22;12802;53.390;-2.328;2022-12-29T12:01:57;8.50;99.90
24682;DHT22;12802;53.390;-2.328;2022-12-29T12:04:27;8.50;99.90
24682;DHT22;12802;53.390;-2.328;2022-12-29T12:09:49;8.40;99.90
24682;DHT22;12802;53.390;-2.328;2022-12-29T12:12:28;8.40;99.90
24682;DHT22;12802;53.390;-2.328;2022-12-29T12:14:57;8.50;99.90
24682;DHT22;12802;53.390;-2.328;2022-12-29T12:17:52;8.40;99.90
24682;DHT22;12802;53.390;-2.328;2022-12-29T12:20:46;8.40;99.90
24682;DHT22;12802;53.390;-2.328;2022-12-29T12:23:43;8.30;99.90
24682;DHT22;12802;53.390;-2.328;2022-12-29T12:26:28;8.30;99.90
24682;DHT22;12802;53.390;-2.328;2022-12-29T12:34:31;8.30;99.90
24682;DHT22;12802;53.390;-2.328;2022-12-29T12:51:17;8.30;99.90
24682;DHT22;12802;53.390;-2.328;2022-12-29T13:02:14;8.40;99.90
24682;DHT22;12802;53.390;-2.328;2022-12-29T13:13:34;8.60;99.90
24682;DHT22;12802;53.390;-2.328;2022-12-29T13:21:57;8.60;99.90
24682;DHT22;12802;53.390;-2.328;2022-12-29T13:25:30;8.60;99.90
24682;DHT22;12802;53.390;-2.328;2022-12-29T13:30:12;8.60;99.90
24682;DHT22;12802;53.390;-2.328;2022-12-29T13:37:57;8.60;99.90
24682;DHT22;12802;53.390;-2.328;2022-12-29T13:40:27;8.60;99.90
24682;DHT22;12802;53.390;-2.328;2022-12-29T13:42:55;8.70;99.90
24682;DHT22;12802;53.390;-2.328;2022-12-29T13:45:26;8.80;99.90
24682;DHT22;12802;53.390;-2.328;2022-12-29T13:50:34;8.90;99.90
24682;DHT22;12802;53.390;-2.328;2022-12-29T13:53:19;8.90;99.90
24682;DHT22;12802;53.390;-2.328;2022-12-29T13:56:07;8.80;99.90
24682;DHT22;12802;53.390;-2.328;2022-12-29T13:59:40;8.80;99.90
24682;DHT22;12802;53.390;-2.328;2022-12-29T14:02:02;8.80;99.90
24682;DHT22;12802;53.390;-2.328;2022-12-29T14:04:30;8.80;99.90
24682;DHT22;12802;53.390;-2.328;2022-12-29T14:07:12;8.80;99.90
24682;DHT22;12802;53.390;-2.328;2022-12-29T14:09:49;8.70;99.90
24682;DHT22;12802;53.390;-2.328;2022-12-29T14:12:20;8.70;99.90
24682;DHT22;12802;53.390;-2.328;2022-12-29T14:14:47;8.80;99.90
24682;DHT22;12802;53.390;-2.328;2022-12-29T14:17:19;8.70;99.90
24682;DHT22;12802;53.390;-2.328;2022-12-29T14:19:46;8.80;99.90
24682;DHT22;12802;53.390;-2.328;2022-12-29T14:22:12;8.80;99.90
24682;DHT22;12802;53.390;-2.328;2022-12-29T14:24:42;8.80;99.90
24682;DHT22;12802;53.390;-2.328;2022-12-29T14:34:55;8.70;99.90
24682;DHT22;12802;53.390;-2.328;2022-12-29T14:42:47;8.70;99.90
24682;DHT22;12802;53.390;-2.328;2022-12-29T14:47:41;8.70;99.90
24682;DHT22;12802;53.390;-2.328;2022-12-29T14:50:12;8.70;99.90
24682;DHT22;12802;53.390;-2.328;2022-12-29T14:52:52;8.70;99.90
24682;DHT22;12802;53.390;-2.328;2022-12-29T14:58:06;8.60;99.90
24682;DHT22;12802;53.390;-2.328;2022-12-29T15:00:38;8.50;99.90
24682;DHT22;12802;53.390;-2.328;2022-12-29T15:03:20;8.50;99.90
24682;DHT22;12802;53.390;-2.328;2022-12-29T15:05:56;8.40;99.90
24682;DHT22;12802;53.390;-2.328;2022-12-29T15:08:29;8.40;99.90
24682;DHT22;12802;53.390;-2.328;2022-12-29T15:11:40;8.40;99.90
24682;DHT22;12802;53.390;-2.328;2022-12-29T15:13:50;8.30;99.90
24682;DHT22;12802;53.390;-2.328;2022-12-29T15:16:25;8.30;99.90
24682;DHT22;12802;53.390;-2.328;2022-12-29T15:18:52;8.20;99.90
24682;DHT22;12802;53.390;-2.328;2022-12-29T15:21:24;8.20;99.90
24682;DHT22;12802;53.390;-2.328;2022-12-29T15:23:50;8.10;99.90
24682;DHT22;12802;53.390;-2.328;2022-12-29T15:26:16;8.20;99.90
24682;DHT22;12802;53.390;-2.328;2022-12-29T15:28:49;8.20;99.90
24682;DHT22;12802;53.390;-2.328;2022-12-29T15:31:23;8.10;99.90
24682;DHT22;12802;53.390;-2.328;2022-12-29T15:33:52;8.10;99.90
24682;DHT22;12802;53.390;-2.328;2022-12-29T15:36:23;8.00;99.90
24682;DHT22;12802;53.390;-2.328;2022-12-29T15:38:50;7.90;99.90
24682;DHT22;12802;53.390;-2.328;2022-12-29T15:44:23;7.90;99.90
24682;DHT22;12802;53.390;-2.328;2022-12-29T15:46:50;7.80;99.90
24682;DHT22;12802;53.390;-2.328;2022-12-29T15:49:17;7.80;99.90
24682;DHT22;12802;53.390;-2.328;2022-12-29T15:51:44;7.80;99.90
24682;DHT22;12802;53.390;-2.328;2022-12-29T15:54:19;7.80;99.90
24682;DHT22;12802;53.390;-2.328;2022-12-29T15:56:46;7.80;99.90
24682;DHT22;12802;53.390;-2.328;2022-12-29T15:59:33;7.70;99.90
24682;DHT22;12802;53.390;-2.328;2022-12-29T16:02:00;7.70;99.90
24682;DHT22;12802;53.390;-2.328;2022-12-29T16:04:29;7.60;99.90
24682;DHT22;12802;53.390;-2.328;2022-12-29T16:06:58;7.60;99.90
24682;DHT22;12802;53.390;-2.328;2022-12-29T16:09:29;7.60;99.90
24682;DHT22;12802;53.390;-2.328;2022-12-29T16:11:58;7.60;99.90
24682;DHT22;12802;53.390;-2.328;2022-12-29T16:14:31;7.60;99.90
24682;DHT22;12802;53.390;-2.328;2022-12-29T16:17:01;7.50;99.90
24682;DHT22;12802;53.390;-2.328;2022-12-29T16:19:33;7.50;99.90
24682;DHT22;12802;53.390;-2.328;2022-12-29T16:22:01;7.50;99.90
24682;DHT22;12802;53.390;-2.328;2022-12-29T16:24:31;7.40;99.90
24682;DHT22;12802;53.390;-2.328;2022-12-29T16:27:06;7.40;99.90
24682;DHT22;12802;53.390;-2.328;2022-12-29T16:29:33;7.30;99.90
24682;DHT22;12802;53.390;-2.328;2022-12-29T16:32:00;7.30;99.90
24682;DHT22;12802;53.390;-2.328;2022-12-29T16:37:35;7.30;99.90
24682;DHT22;12802;53.390;-2.328;2022-12-29T16:40:24;7.20;99.90
24682;DHT22;12802;53.390;-2.328;2022-12-29T16:42:55;7.20;99.90
24682;DHT22;12802;53.390;-2.328;2022-12-29T16:50:33;7.10;99.90
24682;DHT22;12802;53.390;-2.328;2022-12-29T16:53:00;7.10;99.90
24682;DHT22;12802;53.390;-2.328;2022-12-29T16:55:28;7.10;99.90
24682;DHT22;12802;53.390;-2.328;2022-12-29T16:57:54;7.10;99.90
24682;DHT22;12802;53.390;-2.328;2022-12-29T17:00:36;7.00;99.90
24682;DHT22;12802;53.390;-2.328;2022-12-29T17:03:03;6.90;99.90
24682;DHT22;12802;53.390;-2.328;2022-12-29T17:05:29;6.90;99.90
24682;DHT22;12802;53.390;-2.328;2022-12-29T17:07:54;6.80;99.90
24682;DHT22;12802;53.390;-2.328;2022-12-29T17:10:26;6.80;99.90
24682;DHT22;12802;53.390;-2.328;2022-12-29T17:13:12;6.80;99.90
24682;DHT22;12802;53.390;-2.328;2022-12-29T17:15:38;6.80;99.90
24682;DHT22;12802;53.390;-2.328;2022-12-29T17:18:04;6.80;99.90
24682;DHT22;12802;53.390;-2.328;2022-12-29T17:20:31;6.80;99.90
24682;DHT22;12802;53.390;-2.328;2022-12-29T17:22:57;6.70;99.90
24682;DHT22;12802;53.390;-2.328;2022-12-29T17:25:30;6.70;99.90
24682;DHT22;12802;53.390;-2.328;2022-12-29T17:28:21;6.70;99.90
24682;DHT22;12802;53.390;-2.328;2022-12-29T17:30:46;6.60;99.90
24682;DHT22;12802;53.390;-2.328;2022-12-29T17:33:14;6.60;99.90
24682;DHT22;12802;53.390;-2.328;2022-12-29T17:35:40;6.60;99.90
24682;DHT22;12802;53.390;-2.328;2022-12-29T17:40:45;6.60;99.90
24682;DHT22;12802;53.390;-2.328;2022-12-29T17:43:13;6.60;99.90
24682;DHT22;12802;53.390;-2.328;2022-12-29T17:45:40;6.60;99.90
24682;DHT22;12802;53.390;-2.328;2022-12-29T17:48:16;6.70;99.90
24682;DHT22;12802;53.390;-2.328;2022-12-29T17:50:44;6.60;99.90
24682;DHT22;12802;53.390;-2.328;2022-12-29T17:53:14;6.60;99.90
24682;DHT22;12802;53.390;-2.328;2022-12-29T17:55:40;6.60;99.90
24682;DHT22;12802;53.390;-2.328;2022-12-29T17:58:25;6.60;99.90
24682;DHT22;12802;53.390;-2.328;2022-12-29T18:00:55;6.60;99.90
24682;DHT22;12802;53.390;-2.328;2022-12-29T18:03:32;6.60;99.90
24682;DHT22;12802;53.390;-2.328;2022-12-29T18:05:58;6.60;99.90
24682;DHT22;12802;53.390;-2.328;2022-12-29T18:08:24;6.50;99.90
24682;DHT22;12802;53.390;-2.328;2022-12-29T18:10:50;6.50;99.90
24682;DHT22;12802;53.390;-2.328;2022-12-29T18:13:24;6.60;99.90
24682;DHT22;12802;53.390;-2.328;2022-12-29T18:15:51;6.60;99.90
24682;DHT22;12802;53.390;-2.328;2022-12-29T18:18:20;6.60;99.90
24682;DHT22;12802;53.390;-2.328;2022-12-29T18:20:47;6.60;99.90
24682;DHT22;12802;53.390;-2.328;2022-12-29T18:25:57;6.50;99.90
24682;DHT22;12802;53.390;-2.328;2022-12-29T18:28:24;6.50;99.90
24682;DHT22;12802;53.390;-2.328;2022-12-29T18:30:51;6.50;99.90
24682;DHT22;12802;53.390;-2.328;2022-12-29T18:33:19;6.50;99.90
24682;DHT22;12802;53.390;-2.328;2022-12-29T18:35:58;6.50;99.90
24682;DHT22;12802;53.390;-2.328;2022-12-29T18:38:25;6.50;99.90
24682;DHT22;12802;53.390;-2.328;2022-12-29T18:40:52;6.50;99.90
24682;DHT22;12802;53.390;-2.328;2022-12-29T18:43:18;6.50;99.90